createdAt,value
2017-06-09T00:00:43.559Z,0.00
2017-06-09T00:01:38.596Z,0.00
2017-06-09T00:02:38.618Z,0.00
2017-06-09T00:03:32.664Z,0.00
2017-06-09T00:04:32.672Z,0.00
2017-06-09T00:05:28.000Z,0.00
2017-06-09T00:06:22.781Z,0.00
2017-06-09T00:07:22.790Z,0.00
2017-06-09T00:08:17.862Z,0.00
2017-06-09T00:09:12.908Z,0.00
2017-06-09T00:10:12.941Z,0.00
2017-06-09T00:11:07.995Z,0.00
2017-06-09T00:12:02.959Z,0.00
2017-06-09T00:13:03.989Z,0.00
2017-06-09T00:14:04.046Z,0.00
2017-06-09T00:15:04.055Z,0.00
2017-06-09T00:15:59.622Z,0.00
2017-06-09T00:16:53.162Z,0.00
2017-06-09T00:17:47.201Z,0.00
2017-06-09T00:18:42.210Z,0.00
2017-06-09T00:19:42.254Z,0.00
2017-06-09T00:20:37.579Z,0.00
2017-06-09T00:21:32.376Z,0.00
2017-06-09T00:22:32.620Z,0.00
2017-06-09T00:23:27.404Z,0.00
2017-06-09T00:24:22.442Z,0.00
2017-06-09T00:25:23.493Z,0.00
2017-06-09T00:26:23.536Z,0.00
2017-06-09T00:27:23.597Z,0.00
2017-06-09T00:28:18.590Z,0.00
2017-06-09T00:29:12.682Z,0.00
2017-06-09T00:30:12.684Z,0.00
2017-06-09T00:31:08.070Z,0.00
2017-06-09T00:32:07.724Z,0.00
2017-06-09T00:33:01.775Z,0.00
2017-06-09T00:34:01.909Z,0.00
2017-06-09T00:34:56.867Z,0.00
2017-06-09T00:35:51.964Z,0.00
2017-06-09T00:36:51.970Z,0.00
2017-06-09T00:37:41.053Z,0.00
2017-06-09T00:38:28.978Z,0.00
2017-06-09T00:39:18.132Z,0.00
2017-06-09T00:40:06.103Z,0.00
2017-06-09T00:40:54.252Z,0.00
2017-06-09T00:41:43.179Z,0.00
2017-06-09T00:42:31.259Z,0.00
2017-06-09T00:43:25.321Z,0.00
2017-06-09T00:44:13.279Z,0.00
2017-06-09T00:45:02.373Z,0.00
2017-06-09T00:45:57.395Z,0.00
2017-06-09T00:46:57.497Z,0.00
2017-06-09T00:47:52.510Z,0.00
2017-06-09T00:48:58.470Z,0.00
2017-06-09T00:49:53.594Z,0.00
2017-06-09T00:50:47.605Z,0.00
2017-06-09T00:51:47.628Z,0.00
2017-06-09T00:52:47.681Z,0.00
2017-06-09T00:53:42.757Z,0.00
2017-06-09T00:54:36.755Z,0.00
2017-06-09T00:55:36.898Z,0.00
2017-06-09T00:56:31.970Z,0.00
2017-06-09T00:57:32.016Z,0.00
2017-06-09T00:58:25.845Z,0.00
2017-06-09T00:59:25.877Z,0.00
2017-06-09T01:00:20.969Z,0.00
2017-06-09T01:01:15.974Z,0.00
2017-06-09T01:02:16.278Z,0.00
2017-06-09T01:03:11.201Z,0.00
2017-06-09T01:04:06.148Z,0.00
2017-06-09T01:05:07.158Z,0.00
2017-06-09T01:06:07.330Z,0.00
2017-06-09T01:07:07.205Z,0.00
2017-06-09T01:08:02.538Z,0.00
2017-06-09T01:08:56.290Z,0.00
2017-06-09T01:09:56.284Z,0.00
2017-06-09T01:10:51.703Z,0.00
2017-06-09T01:11:57.386Z,0.00
2017-06-09T01:12:52.394Z,0.00
2017-06-09T01:13:46.808Z,0.00
2017-06-09T01:14:46.490Z,0.00
2017-06-09T01:15:46.960Z,0.00
2017-06-09T01:16:41.623Z,0.00
2017-06-09T01:17:35.587Z,0.00
2017-06-09T01:18:36.725Z,0.00
2017-06-09T01:19:25.975Z,0.00
2017-06-09T01:20:13.669Z,0.00
2017-06-09T01:21:07.812Z,0.00
2017-06-09T01:22:01.817Z,0.00
2017-06-09T01:22:50.885Z,0.00
2017-06-09T01:23:38.910Z,0.00
2017-06-09T01:24:27.194Z,0.00
2017-06-09T01:25:15.978Z,0.00
2017-06-09T01:26:16.117Z,0.00
2017-06-09T01:27:10.119Z,0.00
2017-06-09T01:28:10.083Z,0.00
2017-06-09T01:29:04.111Z,0.00
2017-06-09T01:30:04.607Z,0.00
2017-06-09T01:31:04.210Z,0.00
2017-06-09T01:31:59.193Z,0.00
2017-06-09T01:32:54.257Z,0.00
2017-06-09T01:33:55.301Z,0.00
2017-06-09T01:34:55.299Z,0.00
2017-06-09T01:35:55.940Z,0.00
2017-06-09T01:36:50.418Z,0.00
2017-06-09T01:37:44.506Z,0.00
2017-06-09T01:38:44.526Z,0.00
2017-06-09T01:39:39.507Z,0.00
2017-06-09T01:40:33.570Z,0.00
2017-06-09T01:41:22.021Z,0.00
2017-06-09T01:42:10.650Z,0.00
2017-06-09T01:42:58.690Z,0.00
2017-06-09T01:43:53.719Z,0.00
2017-06-09T01:44:53.768Z,0.00
2017-06-09T01:45:47.810Z,0.00
2017-06-09T01:46:48.419Z,0.00
2017-06-09T01:47:42.892Z,0.00
2017-06-09T01:48:37.906Z,0.00
2017-06-09T01:49:38.947Z,0.00
2017-06-09T01:50:40.572Z,0.00
2017-06-09T01:51:40.034Z,0.00
2017-06-09T01:52:40.403Z,0.00
2017-06-09T01:53:40.066Z,0.00
2017-06-09T01:54:41.148Z,0.00
2017-06-09T01:55:42.160Z,0.00
2017-06-09T01:56:36.153Z,0.00
2017-06-09T01:57:36.205Z,0.00
2017-06-09T01:58:31.570Z,0.00
2017-06-09T01:59:26.293Z,0.00
2017-06-09T02:00:26.400Z,0.00
2017-06-09T02:01:21.719Z,0.00
2017-06-09T02:02:16.337Z,0.00
2017-06-09T02:03:16.446Z,0.00
2017-06-09T02:04:12.040Z,0.00
2017-06-09T02:05:06.479Z,0.00
2017-06-09T02:06:08.019Z,0.00
2017-06-09T02:07:07.546Z,0.00
2017-06-09T02:08:07.594Z,0.00
2017-06-09T02:09:02.688Z,0.00
2017-06-09T02:09:51.710Z,0.00
2017-06-09T02:10:47.244Z,0.00
2017-06-09T02:11:47.779Z,0.00
2017-06-09T02:12:47.779Z,0.00
2017-06-09T02:13:42.792Z,0.00
2017-06-09T02:14:42.872Z,0.00
2017-06-09T02:15:36.941Z,0.00
2017-06-09T02:16:36.965Z,0.00
2017-06-09T02:17:30.957Z,0.00
2017-06-09T02:18:31.018Z,0.00
2017-06-09T02:19:25.096Z,0.00
2017-06-09T02:20:25.072Z,0.00
2017-06-09T02:21:25.245Z,0.00
2017-06-09T02:22:25.115Z,0.00
2017-06-09T02:23:25.182Z,0.00
2017-06-09T02:24:20.233Z,0.00
2017-06-09T02:25:20.309Z,0.00
2017-06-09T02:26:20.240Z,0.00
2017-06-09T02:27:26.410Z,0.00
2017-06-09T02:28:21.388Z,0.00
2017-06-09T02:29:21.386Z,0.00
2017-06-09T02:30:16.553Z,0.00
2017-06-09T02:31:16.533Z,0.00
2017-06-09T02:32:16.527Z,0.00
2017-06-09T02:33:17.018Z,0.00
2017-06-09T02:34:10.576Z,0.00
2017-06-09T02:35:10.627Z,0.00
2017-06-09T02:36:05.919Z,0.00
2017-06-09T02:37:00.672Z,0.00
2017-06-09T02:38:00.749Z,0.00
2017-06-09T02:38:55.958Z,0.00
2017-06-09T02:39:50.857Z,0.00
2017-06-09T02:40:51.816Z,0.00
2017-06-09T02:41:52.892Z,0.00
2017-06-09T02:42:52.911Z,0.00
2017-06-09T02:43:53.892Z,0.00
2017-06-09T02:44:48.006Z,0.00
2017-06-09T02:45:47.992Z,0.00
2017-06-09T02:46:43.087Z,0.00
2017-06-09T02:47:38.112Z,0.00
2017-06-09T02:48:38.096Z,0.00
2017-06-09T02:49:33.129Z,0.00
2017-06-09T02:50:28.777Z,0.00
2017-06-09T02:51:28.225Z,0.00
2017-06-09T02:52:23.263Z,0.00
2017-06-09T02:53:18.782Z,0.00
2017-06-09T02:54:19.295Z,0.00
2017-06-09T02:55:19.351Z,0.00
2017-06-09T02:56:19.487Z,0.00
2017-06-09T02:57:19.483Z,0.00
2017-06-09T02:58:19.492Z,0.00
2017-06-09T02:59:19.489Z,0.00
2017-06-09T03:00:19.528Z,0.00
2017-06-09T03:01:19.587Z,0.00
2017-06-09T03:02:19.593Z,0.00
2017-06-09T03:03:19.617Z,0.00
2017-06-09T03:04:19.664Z,0.00
2017-06-09T03:05:19.691Z,0.00
2017-06-09T03:06:19.727Z,0.00
2017-06-09T03:07:20.822Z,0.00
2017-06-09T03:08:15.775Z,0.00
2017-06-09T03:09:09.856Z,0.00
2017-06-09T03:10:10.884Z,0.00
2017-06-09T03:11:06.013Z,0.00
2017-06-09T03:12:05.973Z,0.00
2017-06-09T03:13:06.146Z,0.00
2017-06-09T03:14:06.037Z,0.00
2017-06-09T03:15:06.047Z,0.00
2017-06-09T03:16:06.076Z,0.00
2017-06-09T03:17:01.154Z,0.01
2017-06-09T03:18:01.175Z,0.01
2017-06-09T03:18:56.251Z,0.01
2017-06-09T03:19:50.211Z,0.01
2017-06-09T03:20:39.330Z,0.01
2017-06-09T03:21:40.304Z,0.01
2017-06-09T03:22:34.381Z,0.01
2017-06-09T03:23:34.439Z,0.01
2017-06-09T03:24:29.486Z,0.01
2017-06-09T03:25:24.516Z,0.01
2017-06-09T03:26:18.504Z,0.01
2017-06-09T03:27:18.545Z,0.01
2017-06-09T03:28:13.630Z,0.01
2017-06-09T03:29:07.687Z,0.01
2017-06-09T03:29:55.765Z,0.01
2017-06-09T03:30:44.717Z,0.01
2017-06-09T03:31:44.787Z,0.01
2017-06-09T03:32:44.817Z,0.01
2017-06-09T03:33:33.829Z,0.01
2017-06-09T03:34:27.892Z,0.01
2017-06-09T03:35:21.920Z,0.02
2017-06-09T03:36:16.987Z,0.02
2017-06-09T03:37:18.220Z,0.02
2017-06-09T03:38:18.018Z,0.02
2017-06-09T03:39:13.082Z,0.02
2017-06-09T03:40:08.674Z,0.02
2017-06-09T03:41:08.152Z,0.02
2017-06-09T03:42:03.226Z,0.02
2017-06-09T03:42:58.189Z,0.03
2017-06-09T03:43:52.282Z,0.03
2017-06-09T03:44:52.320Z,0.03
2017-06-09T03:45:47.335Z,0.03
2017-06-09T03:46:42.463Z,0.03
2017-06-09T03:47:42.382Z,0.03
2017-06-09T03:48:37.490Z,0.03
2017-06-09T03:49:32.512Z,0.03
2017-06-09T03:50:26.502Z,0.03
2017-06-09T03:51:26.552Z,0.04
2017-06-09T03:52:21.607Z,0.04
2017-06-09T03:53:21.610Z,0.04
2017-06-09T03:54:21.698Z,0.04
2017-06-09T03:55:21.734Z,0.04
2017-06-09T03:56:15.765Z,0.04
2017-06-09T03:57:16.457Z,0.04
2017-06-09T03:58:10.792Z,0.04
2017-06-09T03:59:05.839Z,0.05
2017-06-09T03:59:59.920Z,0.05
2017-06-09T04:00:59.885Z,0.05
2017-06-09T04:01:54.940Z,0.05
2017-06-09T04:02:50.059Z,0.05
2017-06-09T04:03:50.092Z,0.05
2017-06-09T04:04:45.080Z,0.05
2017-06-09T04:05:40.110Z,0.06
2017-06-09T04:06:34.222Z,0.05
2017-06-09T04:07:35.134Z,0.05
2017-06-09T04:08:30.223Z,0.05
2017-06-09T04:09:24.316Z,0.06
2017-06-09T04:10:13.292Z,0.06
2017-06-09T04:11:07.373Z,0.06
2017-06-09T04:12:02.386Z,0.06
2017-06-09T04:12:50.449Z,0.06
2017-06-09T04:13:44.470Z,0.06
2017-06-09T04:14:39.507Z,0.06
2017-06-09T04:15:28.593Z,0.07
2017-06-09T04:16:22.609Z,0.07
2017-06-09T04:17:22.609Z,0.07
2017-06-09T04:18:22.674Z,0.07
2017-06-09T04:19:22.666Z,0.07
2017-06-09T04:20:17.050Z,0.07
2017-06-09T04:21:17.060Z,0.08
2017-06-09T04:22:11.862Z,0.08
2017-06-09T04:23:06.906Z,0.08
2017-06-09T04:24:00.918Z,0.09
2017-06-09T04:25:01.955Z,0.09
2017-06-09T04:25:56.938Z,0.10
2017-06-09T04:26:56.999Z,0.11
2017-06-09T04:27:57.322Z,0.11
2017-06-09T04:28:57.085Z,0.13
2017-06-09T04:29:57.113Z,0.14
2017-06-09T04:30:57.167Z,0.15
2017-06-09T04:31:57.189Z,0.17
2017-06-09T04:32:52.681Z,0.20
2017-06-09T04:33:47.269Z,0.22
2017-06-09T04:34:42.298Z,0.23
2017-06-09T04:35:37.017Z,0.23
2017-06-09T04:36:36.468Z,0.23
2017-06-09T04:37:36.467Z,0.23
2017-06-09T04:38:37.067Z,0.23
2017-06-09T04:39:36.840Z,0.23
2017-06-09T04:40:36.999Z,0.18
2017-06-09T04:41:36.598Z,0.24
2017-06-09T04:42:31.736Z,0.25
2017-06-09T04:43:20.274Z,0.26
2017-06-09T04:44:13.713Z,0.24
2017-06-09T04:45:14.404Z,0.24
2017-06-09T04:46:07.818Z,0.23
2017-06-09T04:47:02.935Z,0.21
2017-06-09T04:47:57.921Z,0.23
2017-06-09T04:48:52.223Z,0.22
2017-06-09T04:49:47.075Z,0.22
2017-06-09T04:50:47.074Z,0.21
2017-06-09T04:51:36.121Z,0.14
2017-06-09T04:52:30.185Z,0.12
2017-06-09T04:53:31.602Z,0.16
2017-06-09T04:54:32.066Z,0.15
2017-06-09T04:55:26.255Z,0.13
2017-06-09T04:56:21.430Z,0.13
2017-06-09T04:57:21.358Z,0.13
2017-06-09T04:58:15.418Z,0.13
2017-06-09T04:59:10.517Z,0.13
2017-06-09T04:59:59.509Z,0.13
2017-06-09T05:00:53.586Z,0.14
2017-06-09T05:01:53.626Z,0.14
2017-06-09T05:02:41.722Z,0.17
2017-06-09T05:03:29.709Z,0.18
2017-06-09T05:04:17.697Z,0.17
2017-06-09T05:05:13.163Z,0.16
2017-06-09T05:06:08.097Z,0.16
2017-06-09T05:07:07.880Z,0.14
2017-06-09T05:07:56.964Z,0.13
2017-06-09T05:08:45.993Z,0.13
2017-06-09T05:09:41.009Z,0.12
2017-06-09T05:10:41.381Z,0.13
2017-06-09T05:11:36.301Z,0.13
2017-06-09T05:12:42.135Z,0.13
2017-06-09T05:13:36.212Z,0.14
2017-06-09T05:14:37.409Z,0.15
2017-06-09T05:15:37.942Z,0.15
2017-06-09T05:16:37.397Z,0.16
2017-06-09T05:17:32.427Z,0.18
2017-06-09T05:18:32.450Z,0.20
2017-06-09T05:19:32.993Z,0.21
2017-06-09T05:20:33.233Z,0.23
2017-06-09T05:21:32.691Z,0.23
2017-06-09T05:22:32.592Z,0.23
2017-06-09T05:23:32.632Z,0.26
2017-06-09T05:24:32.996Z,0.26
2017-06-09T05:25:38.885Z,0.24
2017-06-09T05:26:33.815Z,0.27
2017-06-09T05:27:27.825Z,0.27
2017-06-09T05:28:28.862Z,0.25
2017-06-09T05:29:22.890Z,0.26
2017-06-09T05:30:17.959Z,0.24
2017-06-09T05:31:18.552Z,0.24
2017-06-09T05:32:13.189Z,0.24
2017-06-09T05:33:08.124Z,0.21
2017-06-09T05:34:02.601Z,0.20
2017-06-09T05:35:02.190Z,0.20
2017-06-09T05:35:56.260Z,0.18
2017-06-09T05:36:56.298Z,0.16
2017-06-09T05:37:50.361Z,0.16
2017-06-09T05:38:50.574Z,0.15
2017-06-09T05:39:44.855Z,0.15
2017-06-09T05:40:50.506Z,0.14
2017-06-09T05:41:44.523Z,0.15
2017-06-09T05:42:50.568Z,0.15
2017-06-09T05:43:39.588Z,0.15
2017-06-09T05:44:28.670Z,0.16
2017-06-09T05:45:17.922Z,0.16
2017-06-09T05:46:06.864Z,0.16
2017-06-09T05:47:01.855Z,0.16
2017-06-09T05:48:02.094Z,0.16
2017-06-09T05:48:56.914Z,0.17
2017-06-09T05:49:56.982Z,0.19
2017-06-09T05:50:58.040Z,0.18
2017-06-09T05:51:52.091Z,0.17
2017-06-09T05:52:52.126Z,0.17
2017-06-09T05:53:47.147Z,0.16
2017-06-09T05:54:42.440Z,0.15
2017-06-09T05:55:37.076Z,0.15
2017-06-09T05:56:36.325Z,0.15
2017-06-09T05:57:30.441Z,0.14
2017-06-09T05:58:19.405Z,0.13
2017-06-09T05:59:07.448Z,0.13
2017-06-09T05:59:56.491Z,0.12
2017-06-09T06:00:44.669Z,0.12
2017-06-09T06:01:33.740Z,0.13
2017-06-09T06:02:33.690Z,0.12
2017-06-09T06:03:28.029Z,0.11
2017-06-09T06:04:22.720Z,0.11
2017-06-09T06:05:12.390Z,0.12
2017-06-09T06:06:11.857Z,0.12
2017-06-09T06:07:06.891Z,0.13
2017-06-09T06:08:01.921Z,0.14
2017-06-09T06:09:01.943Z,0.15
2017-06-09T06:09:57.060Z,0.16
2017-06-09T06:10:52.075Z,0.17
2017-06-09T06:11:46.094Z,0.18
2017-06-09T06:12:46.151Z,0.20
2017-06-09T06:13:41.539Z,0.22
2017-06-09T06:14:36.272Z,0.22
2017-06-09T06:15:36.978Z,0.23
2017-06-09T06:16:30.466Z,0.22
2017-06-09T06:17:30.405Z,0.22
2017-06-09T06:18:24.382Z,0.22
2017-06-09T06:19:12.591Z,0.21
2017-06-09T06:20:00.483Z,0.20
2017-06-09T06:20:49.963Z,0.18
2017-06-09T06:21:37.648Z,0.17
2017-06-09T06:22:37.714Z,0.16
2017-06-09T06:23:32.735Z,0.16
2017-06-09T06:24:32.817Z,0.15
2017-06-09T06:25:33.015Z,0.15
2017-06-09T06:26:38.869Z,0.15
2017-06-09T06:27:33.904Z,0.15
2017-06-09T06:28:27.958Z,0.16
2017-06-09T06:29:29.011Z,0.16
2017-06-09T06:30:24.586Z,0.16
2017-06-09T06:31:24.090Z,0.17
2017-06-09T06:32:24.564Z,0.18
2017-06-09T06:33:24.170Z,0.19
2017-06-09T06:34:24.526Z,0.20
2017-06-09T06:35:24.773Z,0.21
2017-06-09T06:36:24.303Z,0.23
2017-06-09T06:37:24.630Z,0.25
2017-06-09T06:38:30.367Z,0.27
2017-06-09T06:39:25.442Z,0.27
2017-06-09T06:40:19.507Z,0.28
2017-06-09T06:41:14.579Z,0.31
2017-06-09T06:42:21.096Z,0.31
2017-06-09T06:43:15.640Z,0.29
2017-06-09T06:44:09.694Z,0.29
2017-06-09T06:45:10.095Z,0.26
2017-06-09T06:46:04.319Z,0.23
2017-06-09T06:47:03.945Z,0.20
2017-06-09T06:47:58.890Z,0.17
2017-06-09T06:48:59.222Z,0.16
2017-06-09T06:49:52.971Z,0.15
2017-06-09T06:50:47.016Z,0.14
2017-06-09T06:51:47.080Z,0.14
2017-06-09T06:52:47.164Z,0.14
2017-06-09T06:53:41.150Z,0.13
2017-06-09T06:54:29.213Z,0.13
2017-06-09T06:55:23.227Z,0.13
2017-06-09T06:56:18.307Z,0.12
2017-06-09T06:57:12.968Z,0.12
2017-06-09T06:58:07.735Z,0.11
2017-06-09T06:59:07.440Z,0.11
2017-06-09T07:00:01.551Z,0.11
2017-06-09T07:00:55.561Z,0.11
2017-06-09T07:01:51.049Z,0.11
2017-06-09T07:02:45.715Z,0.11
2017-06-09T07:03:46.048Z,0.12
2017-06-09T07:04:40.761Z,0.13
2017-06-09T07:05:36.465Z,0.13
2017-06-09T07:06:24.813Z,0.14
2017-06-09T07:07:19.905Z,0.16
2017-06-09T07:08:19.927Z,0.17
2017-06-09T07:09:15.613Z,0.19
2017-06-09T07:10:10.084Z,0.20
2017-06-09T07:11:04.065Z,0.22
2017-06-09T07:12:04.253Z,0.25
2017-06-09T07:12:59.536Z,0.27
2017-06-09T07:13:59.373Z,0.30
2017-06-09T07:14:53.585Z,0.31
2017-06-09T07:15:47.284Z,0.30
2017-06-09T07:16:41.556Z,0.30
2017-06-09T07:17:30.757Z,0.32
2017-06-09T07:18:19.453Z,0.34
2017-06-09T07:19:07.513Z,0.35
2017-06-09T07:19:56.878Z,0.37
2017-06-09T07:20:50.634Z,0.38
2017-06-09T07:21:50.695Z,0.38
2017-06-09T07:22:51.069Z,0.38
2017-06-09T07:23:50.701Z,0.39
2017-06-09T07:24:50.820Z,0.41
2017-06-09T07:25:50.926Z,0.38
2017-06-09T07:26:51.388Z,0.36
2017-06-09T07:27:50.944Z,0.34
2017-06-09T07:28:51.028Z,0.31
2017-06-09T07:29:40.035Z,0.30
2017-06-09T07:30:29.110Z,0.29
2017-06-09T07:31:24.157Z,0.27
2017-06-09T07:32:19.266Z,0.25
2017-06-09T07:33:19.227Z,0.25
2017-06-09T07:34:13.334Z,0.25
2017-06-09T07:35:13.374Z,0.25
2017-06-09T07:36:07.424Z,0.25
2017-06-09T07:37:08.797Z,0.26
2017-06-09T07:38:02.506Z,0.26
2017-06-09T07:38:50.964Z,0.27
2017-06-09T07:39:40.003Z,0.28
2017-06-09T07:40:33.658Z,0.28
2017-06-09T07:41:27.721Z,0.29
2017-06-09T07:42:15.844Z,0.29
2017-06-09T07:43:09.816Z,0.28
2017-06-09T07:44:04.882Z,0.26
2017-06-09T07:45:04.940Z,0.23
2017-06-09T07:45:54.040Z,0.21
2017-06-09T07:46:48.078Z,0.19
2017-06-09T07:47:43.124Z,0.18
2017-06-09T07:48:38.165Z,0.18
2017-06-09T07:49:27.227Z,0.18
2017-06-09T07:50:16.654Z,0.18
2017-06-09T07:51:10.913Z,0.19
2017-06-09T07:51:59.377Z,0.20
2017-06-09T07:52:53.649Z,0.20
2017-06-09T07:53:42.473Z,0.21
2017-06-09T07:54:30.530Z,0.22
2017-06-09T07:55:24.576Z,0.22
2017-06-09T07:56:12.586Z,0.23
2017-06-09T07:57:06.672Z,0.24
2017-06-09T07:57:55.084Z,0.25
2017-06-09T07:58:49.846Z,0.26
2017-06-09T07:59:37.860Z,0.26
2017-06-09T08:00:25.908Z,0.27
2017-06-09T08:01:19.963Z,0.27
2017-06-09T08:02:07.981Z,0.27
2017-06-09T08:03:02.299Z,0.27
2017-06-09T08:03:57.106Z,0.27
2017-06-09T08:04:51.335Z,0.27
2017-06-09T08:05:39.949Z,0.27
2017-06-09T08:06:27.261Z,0.27
2017-06-09T08:07:16.288Z,0.28
2017-06-09T08:08:10.656Z,0.28
2017-06-09T08:08:58.468Z,0.29
2017-06-09T08:09:52.467Z,0.29
2017-06-09T08:10:42.143Z,0.30
2017-06-09T08:11:35.723Z,0.31
2017-06-09T08:12:29.676Z,0.32
2017-06-09T08:13:23.953Z,0.34
2017-06-09T08:14:17.731Z,0.34
2017-06-09T08:15:18.797Z,0.33
2017-06-09T08:16:18.899Z,0.31
2017-06-09T08:17:13.877Z,0.30
2017-06-09T08:18:08.981Z,0.29
2017-06-09T08:19:09.003Z,0.29
2017-06-09T08:20:04.043Z,0.23
2017-06-09T08:20:58.202Z,0.30
2017-06-09T08:21:52.144Z,0.31
2017-06-09T08:22:53.254Z,0.33
2017-06-09T08:23:48.267Z,0.34
2017-06-09T08:24:37.350Z,0.34
2017-06-09T08:25:31.377Z,0.34
2017-06-09T08:26:26.380Z,0.32
2017-06-09T08:27:21.499Z,0.31
2017-06-09T08:28:10.504Z,0.29
2017-06-09T08:29:04.604Z,0.28
2017-06-09T08:30:05.649Z,0.28
2017-06-09T08:31:06.671Z,0.28
2017-06-09T08:32:06.868Z,0.29
2017-06-09T08:33:06.836Z,0.29
2017-06-09T08:34:01.287Z,0.28
2017-06-09T08:34:54.894Z,0.27
2017-06-09T08:35:55.260Z,0.27
2017-06-09T08:36:49.019Z,0.27
2017-06-09T08:37:38.121Z,0.27
2017-06-09T08:38:38.099Z,0.28
2017-06-09T08:39:27.154Z,0.29
2017-06-09T08:40:21.180Z,0.30
2017-06-09T08:41:10.161Z,0.31
2017-06-09T08:42:03.311Z,0.32
2017-06-09T08:42:52.364Z,0.33
2017-06-09T08:43:46.398Z,0.34
2017-06-09T08:44:41.498Z,0.35
2017-06-09T08:45:35.815Z,0.36
2017-06-09T08:46:23.973Z,0.36
2017-06-09T08:47:18.105Z,0.36
2017-06-09T08:48:18.145Z,0.38
2017-06-09T08:49:12.094Z,0.38
2017-06-09T08:50:00.167Z,0.39
2017-06-09T08:50:54.938Z,0.39
2017-06-09T08:51:49.461Z,0.38
2017-06-09T08:52:43.123Z,0.36
2017-06-09T08:53:32.593Z,0.34
2017-06-09T08:54:32.554Z,0.33
2017-06-09T08:55:21.555Z,0.32
2017-06-09T08:56:21.728Z,0.32
2017-06-09T08:57:16.637Z,0.31
2017-06-09T08:58:11.707Z,0.31
2017-06-09T08:59:05.850Z,0.29
2017-06-09T09:00:05.957Z,0.28
2017-06-09T09:00:54.702Z,0.27
2017-06-09T09:01:49.889Z,0.27
2017-06-09T09:02:50.251Z,0.25
2017-06-09T09:03:45.158Z,0.24
2017-06-09T09:04:38.786Z,0.24
2017-06-09T09:05:39.400Z,0.25
2017-06-09T09:06:33.800Z,0.26
2017-06-09T09:07:28.865Z,0.26
2017-06-09T09:08:23.967Z,0.23
2017-06-09T09:09:11.975Z,0.23
2017-06-09T09:10:13.026Z,0.23
2017-06-09T09:11:07.520Z,0.25
2017-06-09T09:12:01.487Z,0.27
2017-06-09T09:12:56.343Z,0.25
2017-06-09T09:13:56.226Z,0.33
2017-06-09T09:14:51.566Z,0.33
2017-06-09T09:15:51.342Z,0.33
2017-06-09T09:16:40.387Z,0.33
2017-06-09T09:17:28.477Z,0.33
2017-06-09T09:18:28.508Z,0.32
2017-06-09T09:19:23.075Z,0.31
2017-06-09T09:20:22.631Z,0.32
2017-06-09T09:21:12.124Z,0.31
2017-06-09T09:22:05.743Z,0.31
2017-06-09T09:22:54.864Z,0.29
2017-06-09T09:23:49.828Z,0.25
2017-06-09T09:24:39.696Z,0.22
2017-06-09T09:25:33.893Z,0.20
2017-06-09T09:26:28.956Z,0.18
2017-06-09T09:27:17.998Z,0.18
2017-06-09T09:28:13.616Z,0.18
2017-06-09T09:29:02.136Z,0.17
2017-06-09T09:29:57.469Z,0.17
2017-06-09T09:30:52.213Z,0.17
2017-06-09T09:31:47.253Z,0.18
2017-06-09T09:32:36.302Z,0.20
2017-06-09T09:33:30.387Z,0.20
2017-06-09T09:34:25.454Z,0.20
2017-06-09T09:35:19.575Z,0.18
2017-06-09T09:36:14.063Z,0.18
2017-06-09T09:37:13.568Z,0.17
2017-06-09T09:38:07.631Z,0.17
2017-06-09T09:39:07.668Z,0.18
2017-06-09T09:39:56.772Z,0.18
2017-06-09T09:40:45.751Z,0.19
2017-06-09T09:41:39.790Z,0.19
2017-06-09T09:42:34.872Z,0.19
2017-06-09T09:43:28.937Z,0.19
2017-06-09T09:44:23.988Z,0.18
2017-06-09T09:45:13.083Z,0.18
2017-06-09T09:46:08.117Z,0.18
2017-06-09T09:47:03.115Z,0.18
2017-06-09T09:47:57.269Z,0.19
2017-06-09T09:48:51.369Z,0.20
2017-06-09T09:49:46.347Z,0.19
2017-06-09T09:50:46.330Z,0.19
2017-06-09T09:51:41.544Z,0.19
2017-06-09T09:52:30.450Z,0.18
2017-06-09T09:53:19.461Z,0.18
2017-06-09T09:54:14.593Z,0.19
2017-06-09T09:55:09.567Z,0.19
2017-06-09T09:55:58.612Z,0.19
2017-06-09T09:56:52.974Z,0.18
2017-06-09T09:57:41.780Z,0.17
2017-06-09T09:58:42.302Z,0.16
2017-06-09T09:59:35.813Z,0.16
2017-06-09T10:00:35.882Z,0.15
2017-06-09T10:01:30.868Z,0.14
2017-06-09T10:02:20.428Z,0.15
2017-06-09T10:03:09.384Z,0.16
2017-06-09T10:03:57.095Z,0.17
2017-06-09T10:04:52.095Z,0.16
2017-06-09T10:05:47.187Z,0.16
2017-06-09T10:06:36.302Z,0.17
2017-06-09T10:07:30.902Z,0.18
2017-06-09T10:08:24.302Z,0.19
2017-06-09T10:09:18.397Z,0.18
2017-06-09T10:10:18.403Z,0.17
2017-06-09T10:11:07.461Z,0.16
2017-06-09T10:11:56.486Z,0.14
2017-06-09T10:12:50.850Z,0.13
2017-06-09T10:13:44.645Z,0.13
2017-06-09T10:14:39.694Z,0.12
2017-06-09T10:15:33.642Z,0.12
2017-06-09T10:16:27.686Z,0.13
2017-06-09T10:17:16.808Z,0.16
2017-06-09T10:18:10.887Z,0.20
2017-06-09T10:18:59.898Z,0.25
2017-06-09T10:19:54.390Z,0.28
2017-06-09T10:20:48.933Z,0.29
2017-06-09T10:21:43.983Z,0.28
2017-06-09T10:22:38.068Z,0.26
2017-06-09T10:23:32.268Z,0.25
2017-06-09T10:24:32.133Z,0.23
2017-06-09T10:25:26.230Z,0.20
2017-06-09T10:26:20.281Z,0.18
2017-06-09T10:27:20.359Z,0.16
2017-06-09T10:28:15.359Z,0.14
2017-06-09T10:29:03.441Z,0.12
2017-06-09T10:29:58.490Z,0.09
2017-06-09T10:30:47.499Z,0.08
2017-06-09T10:31:35.597Z,0.07
2017-06-09T10:32:29.610Z,0.07
2017-06-09T10:33:23.673Z,0.07
2017-06-09T10:34:17.672Z,0.07
2017-06-09T10:35:17.746Z,0.08
2017-06-09T10:36:11.843Z,0.09
2017-06-09T10:37:00.814Z,0.10
2017-06-09T10:37:48.884Z,0.11
2017-06-09T10:38:37.859Z,0.11
2017-06-09T10:39:32.003Z,0.10
2017-06-09T10:40:20.019Z,0.09
2017-06-09T10:41:20.165Z,0.09
2017-06-09T10:42:15.080Z,0.10
2017-06-09T10:43:09.117Z,0.12
2017-06-09T10:43:58.233Z,0.13
2017-06-09T10:44:52.562Z,0.13
2017-06-09T10:45:47.280Z,0.12
2017-06-09T10:46:35.306Z,0.10
2017-06-09T10:47:29.399Z,0.08
2017-06-09T10:48:24.416Z,0.07
2017-06-09T10:49:19.479Z,0.07
2017-06-09T10:50:13.807Z,0.07
2017-06-09T10:51:02.581Z,0.08
2017-06-09T10:51:56.558Z,0.08
2017-06-09T10:52:45.624Z,0.07
2017-06-09T10:53:39.719Z,0.05
2017-06-09T10:54:33.735Z,0.05
2017-06-09T10:55:34.172Z,0.05
2017-06-09T10:56:27.806Z,0.05
2017-06-09T10:57:21.892Z,0.06
2017-06-09T10:58:21.887Z,0.08
2017-06-09T10:59:21.956Z,0.09
2017-06-09T11:00:15.954Z,0.09
2017-06-09T11:01:05.993Z,0.09
2017-06-09T11:02:05.116Z,0.08
2017-06-09T11:02:59.092Z,0.08
2017-06-09T11:03:53.184Z,0.09
2017-06-09T11:04:48.201Z,0.09
2017-06-09T11:05:37.217Z,0.08
2017-06-09T11:06:26.587Z,0.07
2017-06-09T11:07:15.364Z,0.06
2017-06-09T11:08:15.391Z,0.07
2017-06-09T11:09:09.427Z,0.07
2017-06-09T11:09:57.476Z,0.07
2017-06-09T11:10:46.418Z,0.06
2017-06-09T11:11:34.595Z,0.07
2017-06-09T11:12:23.650Z,0.08
2017-06-09T11:13:11.659Z,0.07
2017-06-09T11:13:59.700Z,0.08
2017-06-09T11:14:59.780Z,0.12
2017-06-09T11:15:53.831Z,0.13
2017-06-09T11:16:47.827Z,0.13
2017-06-09T11:17:47.875Z,0.13
2017-06-09T11:18:36.905Z,0.13
2017-06-09T11:19:30.975Z,0.11
2017-06-09T11:20:19.999Z,0.08
2017-06-09T11:21:14.113Z,0.09
2017-06-09T11:22:02.513Z,0.11
2017-06-09T11:22:50.159Z,0.11
2017-06-09T11:23:44.163Z,0.13
2017-06-09T11:24:38.216Z,0.13
2017-06-09T11:25:26.267Z,0.12
2017-06-09T11:26:15.326Z,0.11
2017-06-09T11:27:09.854Z,0.11
2017-06-09T11:28:04.384Z,0.11
2017-06-09T11:28:58.453Z,0.11
2017-06-09T11:29:53.470Z,0.11
2017-06-09T11:30:47.795Z,0.10
2017-06-09T11:31:35.604Z,0.11
2017-06-09T11:32:37.011Z,0.10
2017-06-09T11:33:30.659Z,0.10
2017-06-09T11:34:24.693Z,0.10
2017-06-09T11:35:24.985Z,0.10
2017-06-09T11:36:19.766Z,0.08
2017-06-09T11:37:19.801Z,0.08
2017-06-09T11:38:08.855Z,0.09
2017-06-09T11:39:03.151Z,0.06
2017-06-09T11:39:56.959Z,0.04
2017-06-09T11:40:45.935Z,0.05
2017-06-09T11:41:34.020Z,0.05
2017-06-09T11:42:34.056Z,0.07
2017-06-09T11:43:34.171Z,0.11
2017-06-09T11:44:35.161Z,0.13
2017-06-09T11:45:24.478Z,0.15
2017-06-09T11:46:19.222Z,0.16
2017-06-09T11:47:13.267Z,0.17
2017-06-09T11:48:13.372Z,0.18
2017-06-09T11:49:07.375Z,0.20
2017-06-09T11:50:07.382Z,0.22
2017-06-09T11:50:56.384Z,0.20
2017-06-09T11:51:51.502Z,0.23
2017-06-09T11:52:46.538Z,0.27
2017-06-09T11:53:46.614Z,0.30
2017-06-09T11:54:41.647Z,0.31
2017-06-09T11:55:30.643Z,0.32
2017-06-09T11:56:24.643Z,0.32
2017-06-09T11:57:25.698Z,0.34
2017-06-09T11:58:14.779Z,0.34
2017-06-09T11:59:08.818Z,0.31
2017-06-09T12:00:10.251Z,0.31
2017-06-09T12:00:57.896Z,0.30
2017-06-09T12:01:51.970Z,0.30
2017-06-09T12:02:46.953Z,0.29
2017-06-09T12:03:42.032Z,0.27
2017-06-09T12:04:36.561Z,0.28
2017-06-09T12:05:30.414Z,0.26
2017-06-09T12:06:30.153Z,0.25
2017-06-09T12:07:24.177Z,0.24
2017-06-09T12:08:19.276Z,0.20
2017-06-09T12:09:08.316Z,0.17
2017-06-09T12:10:02.467Z,0.11
2017-06-09T12:11:02.664Z,0.09
2017-06-09T12:12:02.403Z,0.15
2017-06-09T12:12:56.470Z,0.22
2017-06-09T12:13:50.540Z,0.32
2017-06-09T12:14:45.564Z,0.38
2017-06-09T12:15:33.548Z,0.39
2017-06-09T12:16:27.703Z,0.43
2017-06-09T12:17:17.096Z,0.44